sensor_id;sensor_type;location;lat;lon;timestamp;pressure;altitude;pressure_sealevel;temperature;humidity
66176;BME280;52977;44.816;20.538;2023-02-28T00:00:12;100541.19;;;1.01;100.00
66176;BME280;52977;44.816;20.538;2023-02-28T00:02:42;100598.41;;;1.37;100.00
66176;BME280;52977;44.816;20.538;2023-02-28T00:05:10;100568.50;;;1.10;100.00
66176;BME280;52977;44.816;20.538;2023-02-28T00:07:36;100539.66;;;1.05;100.00
66176;BME280;52977;44.816;20.538;2023-02-28T00:10:07;100567.78;;;1.26;100.00
66176;BME280;52977;44.816;20.538;2023-02-28T00:12:34;100623.69;;;1.65;100.00
66176;BME280;52977;44.816;20.538;2023-02-28T00:15:02;100632.69;;;1.59;100.00
66176;BME280;52977;44.816;20.538;2023-02-28T00:17:28;100636.56;;;1.63;100.00
66176;BME280;52977;44.816;20.538;2023-02-28T00:19:54;100582.94;;;1.32;100.00
66176;BME280;52977;44.816;20.538;2023-02-28T00:22:21;100600.38;;;1.70;100.00
66176;BME280;52977;44.816;20.538;2023-02-28T00:24:47;100520.53;;;0.90;100.00
66176;BME280;52977;44.816;20.538;2023-02-28T00:27:14;100620.91;;;1.48;100.00
66176;BME280;52977;44.816;20.538;2023-02-28T00:29:40;100631.47;;;1.49;100.00
66176;BME280;52977;44.816;20.538;2023-02-28T00:32:07;100616.63;;;1.47;100.00
66176;BME280;52977;44.816;20.538;2023-02-28T00:34:32;100561.59;;;1.14;100.00
66176;BME280;52977;44.816;20.538;2023-02-28T00:37:07;100552.31;;;0.93;100.00
66176;BME280;52977;44.816;20.538;2023-02-28T00:39:35;100574.13;;;1.20;100.00
66176;BME280;52977;44.816;20.538;2023-02-28T00:42:02;100622.69;;;1.42;100.00
66176;BME280;52977;44.816;20.538;2023-02-28T00:44:30;100627.63;;;1.33;100.00
66176;BME280;52977;44.816;20.538;2023-02-28T00:46:59;100560.34;;;1.05;100.00
66176;BME280;52977;44.816;20.538;2023-02-28T00:49:27;100626.22;;;1.43;100.00
66176;BME280;52977;44.816;20.538;2023-02-28T00:51:54;100609.34;;;1.47;100.00
66176;BME280;52977;44.816;20.538;2023-02-28T00:54:21;100527.38;;;0.97;100.00
66176;BME280;52977;44.816;20.538;2023-02-28T00:56:48;100613.00;;;1.41;100.00
66176;BME280;52977;44.816;20.538;2023-02-28T00:59:16;100610.00;;;1.26;100.00
66176;BME280;52977;44.816;20.538;2023-02-28T01:01:45;100587.66;;;1.25;100.00
66176;BME280;52977;44.816;20.538;2023-02-28T01:04:12;100618.09;;;1.54;100.00
66176;BME280;52977;44.816;20.538;2023-02-28T01:06:38;100615.16;;;1.15;100.00
66176;BME280;52977;44.816;20.538;2023-02-28T01:09:05;100616.31;;;1.19;100.00
66176;BME280;52977;44.816;20.538;2023-02-28T01:11:32;100565.31;;;0.72;100.00
66176;BME280;52977;44.816;20.538;2023-02-28T01:13:59;100586.91;;;0.89;100.00
66176;BME280;52977;44.816;20.538;2023-02-28T01:16:26;100632.22;;;1.33;100.00
66176;BME280;52977;44.816;20.538;2023-02-28T01:18:52;100616.00;;;1.16;100.00
66176;BME280;52977;44.816;20.538;2023-02-28T01:21:20;100609.16;;;1.25;100.00
66176;BME280;52977;44.816;20.538;2023-02-28T01:23:46;100582.56;;;1.00;100.00
66176;BME280;52977;44.816;20.538;2023-02-28T01:26:19;100559.72;;;0.62;100.00
66176;BME280;52977;44.816;20.538;2023-02-28T01:28:46;100518.38;;;0.39;100.00
66176;BME280;52977;44.816;20.538;2023-02-28T01:31:13;100629.88;;;1.25;100.00
66176;BME280;52977;44.816;20.538;2023-02-28T01:33:39;100630.81;;;1.18;100.00
66176;BME280;52977;44.816;20.538;2023-02-28T01:36:09;100610.97;;;1.08;100.00
66176;BME280;52977;44.816;20.538;2023-02-28T01:38:36;100594.97;;;0.89;100.00
66176;BME280;52977;44.816;20.538;2023-02-28T01:41:03;100579.69;;;0.90;100.00
66176;BME280;52977;44.816;20.538;2023-02-28T01:43:31;100562.25;;;0.80;100.00
66176;BME280;52977;44.816;20.538;2023-02-28T01:45:58;100622.19;;;1.16;100.00
66176;BME280;52977;44.816;20.538;2023-02-28T01:48:31;100602.66;;;1.09;100.00
66176;BME280;52977;44.816;20.538;2023-02-28T01:51:01;100616.00;;;1.16;100.00
66176;BME280;52977;44.816;20.538;2023-02-28T01:53:34;100526.03;;;0.71;100.00
66176;BME280;52977;44.816;20.538;2023-02-28T01:56:05;100613.38;;;1.33;100.00
66176;BME280;52977;44.816;20.538;2023-02-28T01:58:33;100556.03;;;0.92;100.00
66176;BME280;52977;44.816;20.538;2023-02-28T02:01:00;100565.03;;;0.97;100.00
66176;BME280;52977;44.816;20.538;2023-02-28T02:03:29;100557.56;;;0.99;100.00
66176;BME280;52977;44.816;20.538;2023-02-28T02:05:56;100632.88;;;1.40;100.00
66176;BME280;52977;44.816;20.538;2023-02-28T02:08:25;100549.63;;;0.81;100.00
66176;BME280;52977;44.816;20.538;2023-02-28T02:10:57;100645.34;;;1.17;100.00
66176;BME280;52977;44.816;20.538;2023-02-28T02:13:46;100590.66;;;0.76;100.00
66176;BME280;52977;44.816;20.538;2023-02-28T02:25:12;100609.47;;;1.00;100.00
66176;BME280;52977;44.816;20.538;2023-02-28T02:35:54;100650.84;;;0.99;100.00
66176;BME280;52977;44.816;20.538;2023-02-28T02:43:53;100656.69;;;0.96;100.00
66176;BME280;52977;44.816;20.538;2023-02-28T02:46:28;100554.69;;;0.30;100.00
66176;BME280;52977;44.816;20.538;2023-02-28T02:49:00;100641.03;;;0.93;100.00
66176;BME280;52977;44.816;20.538;2023-02-28T02:51:30;100638.56;;;0.91;100.00
66176;BME280;52977;44.816;20.538;2023-02-28T02:54:04;100638.69;;;0.96;100.00
66176;BME280;52977;44.816;20.538;2023-02-28T02:56:35;100629.22;;;0.94;100.00
66176;BME280;52977;44.816;20.538;2023-02-28T02:59:04;100591.72;;;0.75;100.00
66176;BME280;52977;44.816;20.538;2023-02-28T03:01:33;100615.91;;;0.87;100.00
66176;BME280;52977;44.816;20.538;2023-02-28T03:04:06;100593.47;;;0.81;100.00
66176;BME280;52977;44.816;20.538;2023-02-28T03:06:33;100631.09;;;1.05;100.00
66176;BME280;52977;44.816;20.538;2023-02-28T03:09:02;100637.13;;;1.24;100.00
66176;BME280;52977;44.816;20.538;2023-02-28T03:11:29;100595.19;;;0.99;100.00
66176;BME280;52977;44.816;20.538;2023-02-28T03:21:59;100602.25;;;0.65;100.00
66176;BME280;52977;44.816;20.538;2023-02-28T03:27:11;100641.94;;;1.22;100.00
66176;BME280;52977;44.816;20.538;2023-02-28T03:29:47;100606.88;;;1.05;100.00
66176;BME280;52977;44.816;20.538;2023-02-28T03:35:49;100602.69;;;0.97;100.00
66176;BME280;52977;44.816;20.538;2023-02-28T03:40:50;100645.28;;;1.41;100.00
66176;BME280;52977;44.816;20.538;2023-02-28T03:43:25;100630.69;;;1.37;100.00
66176;BME280;52977;44.816;20.538;2023-02-28T03:45:55;100562.09;;;1.11;100.00
66176;BME280;52977;44.816;20.538;2023-02-28T03:51:05;100636.13;;;0.90;100.00
66176;BME280;52977;44.816;20.538;2023-02-28T03:53:45;100645.94;;;0.96;100.00
66176;BME280;52977;44.816;20.538;2023-02-28T03:56:19;100643.69;;;1.16;100.00
66176;BME280;52977;44.816;20.538;2023-02-28T03:59:12;100600.59;;;0.64;100.00
66176;BME280;52977;44.816;20.538;2023-02-28T04:01:40;100640.56;;;0.96;100.00
66176;BME280;52977;44.816;20.538;2023-02-28T04:04:08;100652.25;;;0.90;100.00
66176;BME280;52977;44.816;20.538;2023-02-28T04:06:34;100627.13;;;0.72;100.00
66176;BME280;52977;44.816;20.538;2023-02-28T04:09:01;100660.19;;;0.84;100.00
66176;BME280;52977;44.816;20.538;2023-02-28T04:14:21;100655.16;;;1.00;100.00
66176;BME280;52977;44.816;20.538;2023-02-28T04:16:47;100584.13;;;0.48;100.00
66176;BME280;52977;44.816;20.538;2023-02-28T04:19:13;100573.03;;;0.21;100.00
66176;BME280;52977;44.816;20.538;2023-02-28T04:21:42;100663.94;;;0.72;100.00
66176;BME280;52977;44.816;20.538;2023-02-28T04:24:11;100663.00;;;0.66;100.00
66176;BME280;52977;44.816;20.538;2023-02-28T04:26:41;100656.47;;;0.62;100.00
66176;BME280;52977;44.816;20.538;2023-02-28T04:29:09;100651.19;;;0.67;100.00
66176;BME280;52977;44.816;20.538;2023-02-28T04:31:35;100602.00;;;0.43;100.00
66176;BME280;52977;44.816;20.538;2023-02-28T04:34:01;100667.31;;;0.91;100.00
66176;BME280;52977;44.816;20.538;2023-02-28T04:36:27;100674.81;;;0.89;100.00
66176;BME280;52977;44.816;20.538;2023-02-28T04:38:53;100677.59;;;0.82;100.00
66176;BME280;52977;44.816;20.538;2023-02-28T04:41:19;100669.09;;;0.73;100.00
66176;BME280;52977;44.816;20.538;2023-02-28T04:43:45;100672.94;;;0.77;100.00
66176;BME280;52977;44.816;20.538;2023-02-28T04:46:11;100646.97;;;0.71;100.00
66176;BME280;52977;44.816;20.538;2023-02-28T04:48:38;100663.34;;;0.93;100.00
66176;BME280;52977;44.816;20.538;2023-02-28T04:51:09;100671.53;;;0.75;100.00
66176;BME280;52977;44.816;20.538;2023-02-28T04:53:37;100669.31;;;0.72;100.00
66176;BME280;52977;44.816;20.538;2023-02-28T04:56:03;100614.72;;;0.47;100.00
66176;BME280;52977;44.816;20.538;2023-02-28T04:58:29;100684.03;;;0.93;100.00
66176;BME280;52977;44.816;20.538;2023-02-28T05:01:02;100591.72;;;0.51;100.00
66176;BME280;52977;44.816;20.538;2023-02-28T05:03:28;100669.06;;;0.85;100.00
66176;BME280;52977;44.816;20.538;2023-02-28T05:05:54;100626.41;;;0.41;100.00
66176;BME280;52977;44.816;20.538;2023-02-28T05:08:19;100578.72;;;0.25;100.00
66176;BME280;52977;44.816;20.538;2023-02-28T05:10:45;100617.19;;;0.61;100.00
66176;BME280;52977;44.816;20.538;2023-02-28T05:13:13;100681.34;;;1.05;100.00
66176;BME280;52977;44.816;20.538;2023-02-28T05:15:40;100668.84;;;0.98;100.00
66176;BME280;52977;44.816;20.538;2023-02-28T05:18:08;100549.09;;;0.20;100.00
66176;BME280;52977;44.816;20.538;2023-02-28T05:20:34;100579.34;;;0.39;100.00
66176;BME280;52977;44.816;20.538;2023-02-28T05:23:01;100653.53;;;0.75;100.00
66176;BME280;52977;44.816;20.538;2023-02-28T05:25:27;100619.28;;;0.71;100.00
66176;BME280;52977;44.816;20.538;2023-02-28T05:27:54;100683.59;;;0.84;100.00
66176;BME280;52977;44.816;20.538;2023-02-28T05:30:20;100669.44;;;0.65;100.00
66176;BME280;52977;44.816;20.538;2023-02-28T05:32:50;100694.56;;;0.94;100.00
66176;BME280;52977;44.816;20.538;2023-02-28T05:35:17;100682.41;;;1.04;100.00
66176;BME280;52977;44.816;20.538;2023-02-28T05:37:42;100685.09;;;1.15;100.00
66176;BME280;52977;44.816;20.538;2023-02-28T05:40:08;100698.88;;;1.31;100.00
66176;BME280;52977;44.816;20.538;2023-02-28T05:42:36;100653.19;;;0.95;100.00
66176;BME280;52977;44.816;20.538;2023-02-28T05:45:01;100707.53;;;0.97;100.00
66176;BME280;52977;44.816;20.538;2023-02-28T05:47:28;100716.44;;;0.98;100.00
66176;BME280;52977;44.816;20.538;2023-02-28T05:49:54;100653.75;;;0.74;100.00
66176;BME280;52977;44.816;20.538;2023-02-28T05:52:20;100685.09;;;1.04;100.00
66176;BME280;52977;44.816;20.538;2023-02-28T05:54:46;100641.41;;;0.73;100.00
66176;BME280;52977;44.816;20.538;2023-02-28T05:57:13;100708.94;;;1.24;100.00
66176;BME280;52977;44.816;20.538;2023-02-28T05:59:39;100650.84;;;0.75;100.00
66176;BME280;52977;44.816;20.538;2023-02-28T06:02:11;100605.25;;;0.33;100.00
66176;BME280;52977;44.816;20.538;2023-02-28T06:04:38;100706.94;;;0.83;100.00
66176;BME280;52977;44.816;20.538;2023-02-28T06:07:04;100674.44;;;0.61;100.00
66176;BME280;52977;44.816;20.538;2023-02-28T06:09:30;100663.13;;;0.59;100.00
66176;BME280;52977;44.816;20.538;2023-02-28T06:12:02;100649.44;;;0.49;100.00
66176;BME280;52977;44.816;20.538;2023-02-28T06:14:32;100732.69;;;0.91;100.00
66176;BME280;52977;44.816;20.538;2023-02-28T06:16:59;100717.00;;;1.00;100.00
66176;BME280;52977;44.816;20.538;2023-02-28T06:19:25;100721.44;;;0.94;100.00
66176;BME280;52977;44.816;20.538;2023-02-28T06:21:53;100722.72;;;0.92;100.00
66176;BME280;52977;44.816;20.538;2023-02-28T06:24:20;100736.91;;;1.11;100.00
66176;BME280;52977;44.816;20.538;2023-02-28T06:26:46;100660.91;;;0.56;100.00
66176;BME280;52977;44.816;20.538;2023-02-28T06:29:12;100614.94;;;0.22;100.00
66176;BME280;52977;44.816;20.538;2023-02-28T06:31:43;100679.00;;;0.61;100.00
66176;BME280;52977;44.816;20.538;2023-02-28T06:34:09;100719.22;;;1.03;100.00
66176;BME280;52977;44.816;20.538;2023-02-28T06:36:38;100713.50;;;0.99;100.00
66176;BME280;52977;44.816;20.538;2023-02-28T06:39:04;100733.84;;;1.43;100.00
66176;BME280;52977;44.816;20.538;2023-02-28T06:41:31;100718.19;;;1.28;100.00
66176;BME280;52977;44.816;20.538;2023-02-28T06:43:57;100750.78;;;1.55;100.00
66176;BME280;52977;44.816;20.538;2023-02-28T06:46:23;100738.25;;;1.61;100.00
66176;BME280;52977;44.816;20.538;2023-02-28T06:48:49;100741.09;;;1.54;100.00
66176;BME280;52977;44.816;20.538;2023-02-28T06:51:18;100635.78;;;0.74;100.00
66176;BME280;52977;44.816;20.538;2023-02-28T06:53:46;100711.28;;;1.32;100.00
66176;BME280;52977;44.816;20.538;2023-02-28T06:56:14;100732.06;;;1.48;100.00
66176;BME280;52977;44.816;20.538;2023-02-28T06:58:41;100741.06;;;1.42;100.00
66176;BME280;52977;44.816;20.538;2023-02-28T07:01:08;100726.38;;;1.33;100.00
66176;BME280;52977;44.816;20.538;2023-02-28T07:03:35;100752.78;;;1.48;100.00
66176;BME280;52977;44.816;20.538;2023-02-28T07:06:02;100650.25;;;1.09;100.00
66176;BME280;52977;44.816;20.538;2023-02-28T07:08:29;100747.22;;;1.78;100.00
66176;BME280;52977;44.816;20.538;2023-02-28T07:10:57;100727.59;;;1.66;100.00
66176;BME280;52977;44.816;20.538;2023-02-28T07:13:24;100713.56;;;1.64;100.00
66176;BME280;52977;44.816;20.538;2023-02-28T07:15:58;100748.50;;;1.87;100.00
66176;BME280;52977;44.816;20.538;2023-02-28T07:18:25;100754.00;;;1.93;100.00
66176;BME280;52977;44.816;20.538;2023-02-28T07:20:51;100707.28;;;1.34;100.00
66176;BME280;52977;44.816;20.538;2023-02-28T07:23:17;100733.56;;;1.56;100.00
66176;BME280;52977;44.816;20.538;2023-02-28T07:25:43;100666.38;;;1.09;100.00
66176;BME280;52977;44.816;20.538;2023-02-28T07:28:09;100731.41;;;1.17;100.00
66176;BME280;52977;44.816;20.538;2023-02-28T07:30:34;100712.56;;;0.94;100.00
66176;BME280;52977;44.816;20.538;2023-02-28T07:33:01;100707.06;;;1.12;100.00
66176;BME280;52977;44.816;20.538;2023-02-28T07:35:26;100712.09;;;1.21;100.00
66176;BME280;52977;44.816;20.538;2023-02-28T07:37:52;100720.28;;;1.38;100.00
66176;BME280;52977;44.816;20.538;2023-02-28T07:40:18;100727.19;;;1.33;100.00
66176;BME280;52977;44.816;20.538;2023-02-28T07:42:44;100710.34;;;1.14;100.00
66176;BME280;52977;44.816;20.538;2023-02-28T07:45:10;100734.66;;;1.43;100.00
66176;BME280;52977;44.816;20.538;2023-02-28T07:47:38;100733.56;;;1.56;100.00
66176;BME280;52977;44.816;20.538;2023-02-28T07:50:06;100742.59;;;1.38;100.00
66176;BME280;52977;44.816;20.538;2023-02-28T07:52:32;100746.59;;;1.24;100.00
66176;BME280;52977;44.816;20.538;2023-02-28T07:54:59;100709.53;;;1.14;100.00
66176;BME280;52977;44.816;20.538;2023-02-28T07:57:24;100748.69;;;1.45;100.00
66176;BME280;52977;44.816;20.538;2023-02-28T07:59:50;100748.19;;;1.60;100.00
66176;BME280;52977;44.816;20.538;2023-02-28T08:02:18;100749.84;;;1.73;100.00
66176;BME280;52977;44.816;20.538;2023-02-28T08:04:44;100717.25;;;1.22;100.00
66176;BME280;52977;44.816;20.538;2023-02-28T08:07:12;100732.56;;;1.22;100.00
66176;BME280;52977;44.816;20.538;2023-02-28T08:09:40;100746.00;;;1.45;100.00
66176;BME280;52977;44.816;20.538;2023-02-28T08:12:06;100738.84;;;1.63;100.00
66176;BME280;52977;44.816;20.538;2023-02-28T08:14:32;100720.94;;;1.57;100.00
66176;BME280;52977;44.816;20.538;2023-02-28T08:16:58;100709.63;;;1.43;100.00
66176;BME280;52977;44.816;20.538;2023-02-28T08:19:24;100755.22;;;1.73;100.00
66176;BME280;52977;44.816;20.538;2023-02-28T08:21:50;100751.03;;;1.53;100.00
66176;BME280;52977;44.816;20.538;2023-02-28T08:24:17;100687.88;;;1.32;100.00
66176;BME280;52977;44.816;20.538;2023-02-28T08:26:43;100751.25;;;1.64;100.00
66176;BME280;52977;44.816;20.538;2023-02-28T08:29:09;100700.63;;;1.25;100.00
66176;BME280;52977;44.816;20.538;2023-02-28T08:31:36;100770.69;;;1.54;100.00
66176;BME280;52977;44.816;20.538;2023-02-28T08:34:13;100723.00;;;1.26;100.00
66176;BME280;52977;44.816;20.538;2023-02-28T08:36:40;100739.56;;;1.46;100.00
66176;BME280;52977;44.816;20.538;2023-02-28T08:39:10;100750.22;;;1.29;100.00
66176;BME280;52977;44.816;20.538;2023-02-28T08:41:36;100657.41;;;0.67;100.00
66176;BME280;52977;44.816;20.538;2023-02-28T08:44:02;100756.31;;;1.48;100.00
66176;BME280;52977;44.816;20.538;2023-02-28T08:46:29;100721.09;;;1.02;100.00
66176;BME280;52977;44.816;20.538;2023-02-28T08:48:56;100743.91;;;1.12;100.00
66176;BME280;52977;44.816;20.538;2023-02-28T08:51:26;100735.84;;;1.24;100.00
66176;BME280;52977;44.816;20.538;2023-02-28T08:53:53;100762.03;;;1.40;100.00
66176;BME280;52977;44.816;20.538;2023-02-28T08:56:20;100703.59;;;1.12;100.00
66176;BME280;52977;44.816;20.538;2023-02-28T08:58:48;100681.72;;;0.96;100.00
66176;BME280;52977;44.816;20.538;2023-02-28T09:01:20;100753.16;;;1.28;100.00
66176;BME280;52977;44.816;20.538;2023-02-28T09:03:50;100743.56;;;1.08;100.00
66176;BME280;52977;44.816;20.538;2023-02-28T09:06:18;100703.22;;;0.84;100.00
66176;BME280;52977;44.816;20.538;2023-02-28T09:08:44;100770.69;;;1.30;100.00
66176;BME280;52977;44.816;20.538;2023-02-28T09:11:11;100734.44;;;1.09;100.00
66176;BME280;52977;44.816;20.538;2023-02-28T09:13:38;100710.59;;;1.01;100.00
66176;BME280;52977;44.816;20.538;2023-02-28T09:16:06;100715.03;;;1.07;100.00
66176;BME280;52977;44.816;20.538;2023-02-28T09:18:37;100727.06;;;1.28;100.00
66176;BME280;52977;44.816;20.538;2023-02-28T09:21:05;100652.34;;;0.71;100.00
66176;BME280;52977;44.816;20.538;2023-02-28T09:23:31;100698.78;;;0.90;100.00
66176;BME280;52977;44.816;20.538;2023-02-28T09:25:58;100739.81;;;1.21;100.00
66176;BME280;52977;44.816;20.538;2023-02-28T09:28:24;100720.41;;;1.07;100.00
66176;BME280;52977;44.816;20.538;2023-02-28T09:30:53;100754.53;;;1.42;100.00
66176;BME280;52977;44.816;20.538;2023-02-28T09:33:20;100679.03;;;0.84;100.00
66176;BME280;52977;44.816;20.538;2023-02-28T09:35:51;100763.66;;;1.65;100.00
66176;BME280;52977;44.816;20.538;2023-02-28T09:38:22;100607.25;;;0.73;100.00
66176;BME280;52977;44.816;20.538;2023-02-28T09:41:00;100765.50;;;1.64;100.00
66176;BME280;52977;44.816;20.538;2023-02-28T09:43:31;100764.00;;;1.45;100.00
66176;BME280;52977;44.816;20.538;2023-02-28T09:48:53;100745.56;;;1.25;100.00
66176;BME280;52977;44.816;20.538;2023-02-28T09:51:36;100688.72;;;0.85;100.00
66176;BME280;52977;44.816;20.538;2023-02-28T09:54:08;100766.38;;;1.41;100.00
66176;BME280;52977;44.816;20.538;2023-02-28T09:56:36;100773.16;;;1.32;100.00
66176;BME280;52977;44.816;20.538;2023-02-28T09:59:29;100766.34;;;1.53;100.00
66176;BME280;52977;44.816;20.538;2023-02-28T10:05:04;100706.13;;;1.18;100.00
66176;BME280;52977;44.816;20.538;2023-02-28T10:10:48;100703.22;;;1.08;100.00
66176;BME280;52977;44.816;20.538;2023-02-28T10:15:45;100699.69;;;1.19;100.00
66176;BME280;52977;44.816;20.538;2023-02-28T10:18:16;100698.53;;;1.27;100.00
66176;BME280;52977;44.816;20.538;2023-02-28T10:20:46;100747.22;;;1.78;100.00
66176;BME280;52977;44.816;20.538;2023-02-28T10:23:31;100751.19;;;1.87;100.00
66176;BME280;52977;44.816;20.538;2023-02-28T10:26:08;100757.25;;;1.95;100.00
66176;BME280;52977;44.816;20.538;2023-02-28T10:28:37;100738.88;;;1.92;100.00
66176;BME280;52977;44.816;20.538;2023-02-28T10:31:15;100703.97;;;1.68;100.00
66176;BME280;52977;44.816;20.538;2023-02-28T10:33:44;100743.16;;;2.04;100.00
66176;BME280;52977;44.816;20.538;2023-02-28T10:36:15;100677.59;;;1.41;100.00
66176;BME280;52977;44.816;20.538;2023-02-28T10:38:43;100757.19;;;2.18;100.00
66176;BME280;52977;44.816;20.538;2023-02-28T10:41:15;100719.38;;;1.84;100.00
66176;BME280;52977;44.816;20.538;2023-02-28T10:43:43;100765.50;;;2.17;100.00
66176;BME280;52977;44.816;20.538;2023-02-28T10:48:57;100723.28;;;1.65;100.00
66176;BME280;52977;44.816;20.538;2023-02-28T10:51:46;100718.78;;;1.30;100.00
66176;BME280;52977;44.816;20.538;2023-02-28T10:54:17;100744.22;;;1.63;100.00
66176;BME280;52977;44.816;20.538;2023-02-28T10:56:44;100747.59;;;1.82;100.00
66176;BME280;52977;44.816;20.538;2023-02-28T11:01:42;100710.38;;;1.67;100.00
66176;BME280;52977;44.816;20.538;2023-02-28T11:07:00;100652.69;;;1.22;100.00
66176;BME280;52977;44.816;20.538;2023-02-28T11:09:31;100734.25;;;1.75;100.00
66176;BME280;52977;44.816;20.538;2023-02-28T11:12:00;100719.63;;;1.71;100.00
66176;BME280;52977;44.816;20.538;2023-02-28T11:14:29;100729.06;;;1.85;100.00
66176;BME280;52977;44.816;20.538;2023-02-28T11:17:03;100670.34;;;1.30;100.00
66176;BME280;52977;44.816;20.538;2023-02-28T11:19:44;100730.63;;;1.69;100.00
66176;BME280;52977;44.816;20.538;2023-02-28T11:22:19;100640.91;;;1.52;100.00
66176;BME280;52977;44.816;20.538;2023-02-28T11:24:50;100727.53;;;2.18;100.00
66176;BME280;52977;44.816;20.538;2023-02-28T11:29:55;100720.13;;;2.26;100.00
66176;BME280;52977;44.816;20.538;2023-02-28T11:32:22;100661.38;;;1.65;100.00
66176;BME280;52977;44.816;20.538;2023-02-28T11:37:41;100577.19;;;1.12;100.00
66176;BME280;52977;44.816;20.538;2023-02-28T11:40:15;100723.22;;;1.88;100.00
66176;BME280;52977;44.816;20.538;2023-02-28T11:48:22;100722.53;;;2.39;100.00
66176;BME280;52977;44.816;20.538;2023-02-28T11:51:31;100709.72;;;2.17;100.00
66176;BME280;52977;44.816;20.538;2023-02-28T11:54:17;100715.31;;;2.28;100.00
66176;BME280;52977;44.816;20.538;2023-02-28T11:56:48;100648.75;;;1.82;100.00
66176;BME280;52977;44.816;20.538;2023-02-28T12:04:49;100660.03;;;2.08;100.00
66176;BME280;52977;44.816;20.538;2023-02-28T12:18:12;100658.22;;;1.97;100.00
66176;BME280;52977;44.816;20.538;2023-02-28T12:21:45;100722.13;;;2.47;100.00
66176;BME280;52977;44.816;20.538;2023-02-28T12:26:44;100706.44;;;2.44;100.00
66176;BME280;52977;44.816;20.538;2023-02-28T12:29:47;100674.56;;;2.24;100.00
66176;BME280;52977;44.816;20.538;2023-02-28T12:32:25;100727.31;;;2.37;100.00
66176;BME280;52977;44.816;20.538;2023-02-28T12:37:39;100711.25;;;2.42;100.00
66176;BME280;52977;44.816;20.538;2023-02-28T12:40:13;100704.56;;;2.62;100.00
66176;BME280;52977;44.816;20.538;2023-02-28T12:43:08;100649.41;;;2.18;100.00
66176;BME280;52977;44.816;20.538;2023-02-28T12:45:50;100713.16;;;2.13;100.00
66176;BME280;52977;44.816;20.538;2023-02-28T12:48:24;100700.25;;;2.15;100.00
66176;BME280;52977;44.816;20.538;2023-02-28T12:50:52;100685.19;;;2.14;100.00
66176;BME280;52977;44.816;20.538;2023-02-28T12:53:26;100691.97;;;2.16;100.00
66176;BME280;52977;44.816;20.538;2023-02-28T12:59:00;100621.19;;;1.75;100.00
66176;BME280;52977;44.816;20.538;2023-02-28T13:01:34;100705.13;;;2.30;100.00
66176;BME280;52977;44.816;20.538;2023-02-28T13:07:08;100704.34;;;2.17;100.00
66176;BME280;52977;44.816;20.538;2023-02-28T13:09:38;100592.41;;;1.47;100.00
66176;BME280;52977;44.816;20.538;2023-02-28T13:12:13;100702.91;;;1.98;100.00
66176;BME280;52977;44.816;20.538;2023-02-28T13:14:40;100656.00;;;1.53;100.00
66176;BME280;52977;44.816;20.538;2023-02-28T13:19:35;100666.94;;;1.75;100.00
66176;BME280;52977;44.816;20.538;2023-02-28T13:22:03;100708.59;;;1.84;100.00
66176;BME280;52977;44.816;20.538;2023-02-28T13:29:38;100697.38;;;2.50;100.00
66176;BME280;52977;44.816;20.538;2023-02-28T13:34:40;100671.97;;;2.46;100.00
66176;BME280;52977;44.816;20.538;2023-02-28T13:39:49;100655.69;;;2.07;100.00
66176;BME280;52977;44.816;20.538;2023-02-28T13:52:57;100698.97;;;2.17;100.00
66176;BME280;52977;44.816;20.538;2023-02-28T13:55:45;100643.38;;;1.82;100.00
66176;BME280;52977;44.816;20.538;2023-02-28T14:06:32;100647.31;;;1.63;100.00
66176;BME280;52977;44.816;20.538;2023-02-28T14:09:16;100674.16;;;1.86;100.00
66176;BME280;52977;44.816;20.538;2023-02-28T14:11:46;100687.25;;;1.95;100.00
66176;BME280;52977;44.816;20.538;2023-02-28T14:17:07;100677.44;;;1.88;100.00
66176;BME280;52977;44.816;20.538;2023-02-28T14:19:36;100659.09;;;1.74;100.00
66176;BME280;52977;44.816;20.538;2023-02-28T14:25:22;100676.75;;;1.81;100.00
66176;BME280;52977;44.816;20.538;2023-02-28T14:33:35;100677.63;;;1.99;100.00
66176;BME280;52977;44.816;20.538;2023-02-28T14:38:46;100697.75;;;1.96;100.00
66176;BME280;52977;44.816;20.538;2023-02-28T14:41:37;100665.09;;;1.64;100.00
66176;BME280;52977;44.816;20.538;2023-02-28T14:46:49;100691.34;;;1.97;100.00
66176;BME280;52977;44.816;20.538;2023-02-28T14:49:20;100687.59;;;1.98;100.00
66176;BME280;52977;44.816;20.538;2023-02-28T14:52:02;100642.03;;;1.68;100.00
66176;BME280;52977;44.816;20.538;2023-02-28T14:54:32;100701.47;;;2.07;100.00
66176;BME280;52977;44.816;20.538;2023-02-28T14:56:59;100641.28;;;1.84;100.00
66176;BME280;52977;44.816;20.538;2023-02-28T14:59:30;100626.56;;;1.75;100.00
66176;BME280;52977;44.816;20.538;2023-02-28T15:02:20;100682.25;;;2.15;100.00
66176;BME280;52977;44.816;20.538;2023-02-28T15:04:57;100680.34;;;2.16;100.00
66176;BME280;52977;44.816;20.538;2023-02-28T15:07:23;100689.47;;;2.15;100.00
66176;BME280;52977;44.816;20.538;2023-02-28T15:10:13;100659.50;;;1.94;100.00
66176;BME280;52977;44.816;20.538;2023-02-28T15:12:41;100647.56;;;1.90;100.00
66176;BME280;52977;44.816;20.538;2023-02-28T15:15:16;100630.78;;;1.71;100.00
66176;BME280;52977;44.816;20.538;2023-02-28T15:17:45;100631.47;;;1.78;100.00
66176;BME280;52977;44.816;20.538;2023-02-28T15:20:13;100668.50;;;2.00;100.00
66176;BME280;52977;44.816;20.538;2023-02-28T15:22:40;100650.03;;;1.92;100.00
66176;BME280;52977;44.816;20.538;2023-02-28T15:25:07;100684.09;;;2.15;100.00